sensor_id;sensor_type;location;lat;lon;timestamp;pressure;altitude;pressure_sealevel;temperature;humidity
40285;BME280;25997;50.214;19.354;2024-02-23T00:00:21;95855.63;;;11.06;44.92
40285;BME280;25997;50.214;19.354;2024-02-23T00:03:23;95853.84;;;11.08;44.98
40285;BME280;25997;50.214;19.354;2024-02-23T00:06:28;95856.53;;;11.01;45.24
40285;BME280;25997;50.214;19.354;2024-02-23T00:09:30;95854.75;;;11.03;44.98
40285;BME280;25997;50.214;19.354;2024-02-23T00:12:33;95850.41;;;11.00;45.11
40285;BME280;25997;50.214;19.354;2024-02-23T00:15:35;95853.91;;;11.01;45.08
40285;BME280;25997;50.214;19.354;2024-02-23T00:18:38;95855.72;;;10.97;45.29
40285;BME280;25997;50.214;19.354;2024-02-23T00:21:41;95847.94;;;10.88;45.49
40285;BME280;25997;50.214;19.354;2024-02-23T00:24:44;95849.00;;;10.70;46.09
40285;BME280;25997;50.214;19.354;2024-02-23T00:27:46;95849.88;;;10.69;46.16
40285;BME280;25997;50.214;19.354;2024-02-23T00:30:49;95836.78;;;10.65;46.44
40285;BME280;25997;50.214;19.354;2024-02-23T00:33:51;95839.47;;;10.62;46.54
40285;BME280;25997;50.214;19.354;2024-02-23T00:36:55;95835.16;;;10.55;46.95
40285;BME280;25997;50.214;19.354;2024-02-23T00:39:58;95829.91;;;10.53;46.94
40285;BME280;25997;50.214;19.354;2024-02-23T00:43:04;95833.47;;;10.51;46.98
40285;BME280;25997;50.214;19.354;2024-02-23T00:46:07;95829.94;;;10.49;47.11
40285;BME280;25997;50.214;19.354;2024-02-23T00:49:10;95828.19;;;10.52;47.00
40285;BME280;25997;50.214;19.354;2024-02-23T00:52:14;95821.22;;;10.50;47.23
40285;BME280;25997;50.214;19.354;2024-02-23T00:55:17;95820.38;;;10.45;47.21
40285;BME280;25997;50.214;19.354;2024-02-23T00:58:19;95821.22;;;10.50;47.24
40285;BME280;25997;50.214;19.354;2024-02-23T01:01:22;95817.69;;;10.52;47.21
40285;BME280;25997;50.214;19.354;2024-02-23T01:04:24;95822.03;;;10.55;47.24
40285;BME280;25997;50.214;19.354;2024-02-23T01:07:28;95816.75;;;10.59;47.05
40285;BME280;25997;50.214;19.354;2024-02-23T01:10:31;95828.97;;;10.62;47.07
40285;BME280;25997;50.214;19.354;2024-02-23T01:13:34;95815.81;;;10.63;47.04
40285;BME280;25997;50.214;19.354;2024-02-23T01:16:36;95834.97;;;10.71;46.98
40285;BME280;25997;50.214;19.354;2024-02-23T01:19:39;95823.53;;;10.79;46.72
40285;BME280;25997;50.214;19.354;2024-02-23T01:22:44;95827.91;;;10.78;46.77
40285;BME280;25997;50.214;19.354;2024-02-23T01:25:47;95832.09;;;10.96;46.29
40285;BME280;25997;50.214;19.354;2024-02-23T01:28:49;95837.25;;;11.03;46.07
40285;BME280;25997;50.214;19.354;2024-02-23T01:31:52;95836.34;;;11.07;45.94
40285;BME280;25997;50.214;19.354;2024-02-23T01:34:58;95833.72;;;11.10;45.85
40285;BME280;25997;50.214;19.354;2024-02-23T01:38:02;95831.91;;;11.15;45.85
40285;BME280;25997;50.214;19.354;2024-02-23T01:41:04;95836.25;;;11.16;45.78
40285;BME280;25997;50.214;19.354;2024-02-23T01:44:07;95838.81;;;11.22;45.68
40285;BME280;25997;50.214;19.354;2024-02-23T01:47:10;95837.03;;;11.24;45.68
40285;BME280;25997;50.214;19.354;2024-02-23T01:50:13;95840.56;;;11.23;45.64
40285;BME280;25997;50.214;19.354;2024-02-23T01:53:18;95846.63;;;11.27;45.51
40285;BME280;25997;50.214;19.354;2024-02-23T01:56:21;95839.66;;;11.24;45.35
40285;BME280;25997;50.214;19.354;2024-02-23T01:59:25;95837.03;;;11.26;45.33
40285;BME280;25997;50.214;19.354;2024-02-23T02:02:28;95846.63;;;11.28;45.19
40285;BME280;25997;50.214;19.354;2024-02-23T02:05:31;95836.06;;;11.31;45.13
40285;BME280;25997;50.214;19.354;2024-02-23T02:08:35;95843.03;;;11.37;45.09
40285;BME280;25997;50.214;19.354;2024-02-23T02:11:45;95836.88;;;11.39;44.88
40285;BME280;25997;50.214;19.354;2024-02-23T02:14:48;95831.59;;;11.38;44.98
40285;BME280;25997;50.214;19.354;2024-02-23T02:17:50;95833.31;;;11.40;44.81
40285;BME280;25997;50.214;19.354;2024-02-23T02:20:56;95834.22;;;11.38;44.91
40285;BME280;25997;50.214;19.354;2024-02-23T02:24:00;95833.44;;;11.33;44.59
40285;BME280;25997;50.214;19.354;2024-02-23T02:27:03;95828.31;;;11.24;44.95
40285;BME280;25997;50.214;19.354;2024-02-23T02:30:08;95825.75;;;11.16;45.18
40285;BME280;25997;50.214;19.354;2024-02-23T02:33:10;95824.03;;;11.15;45.24
40285;BME280;25997;50.214;19.354;2024-02-23T02:36:13;95824.03;;;11.15;45.14
40285;BME280;25997;50.214;19.354;2024-02-23T02:39:17;95822.31;;;11.13;45.33
40285;BME280;25997;50.214;19.354;2024-02-23T02:42:19;95825.88;;;11.04;45.29
40285;BME280;25997;50.214;19.354;2024-02-23T02:45:22;95826.88;;;10.91;45.63
40285;BME280;25997;50.214;19.354;2024-02-23T02:48:25;95826.09;;;10.85;45.61
40285;BME280;25997;50.214;19.354;2024-02-23T02:51:27;95827.94;;;10.77;46.13
40285;BME280;25997;50.214;19.354;2024-02-23T02:54:31;95835.97;;;10.60;46.33
40285;BME280;25997;50.214;19.354;2024-02-23T02:57:33;95846.47;;;10.61;46.33
40285;BME280;25997;50.214;19.354;2024-02-23T03:00:36;95838.56;;;10.66;46.21
40285;BME280;25997;50.214;19.354;2024-02-23T03:03:39;95836.81;;;10.63;46.22
40285;BME280;25997;50.214;19.354;2024-02-23T03:06:41;95843.88;;;10.58;46.37
40285;BME280;25997;50.214;19.354;2024-02-23T03:09:45;95831.69;;;10.51;46.59
40285;BME280;25997;50.214;19.354;2024-02-23T03:12:48;95845.75;;;10.46;46.92
40285;BME280;25997;50.214;19.354;2024-02-23T03:15:50;95844.88;;;10.45;46.96
40285;BME280;25997;50.214;19.354;2024-02-23T03:18:53;95845.75;;;10.46;47.07
40285;BME280;25997;50.214;19.354;2024-02-23T03:21:56;95844.84;;;10.47;47.33
40285;BME280;25997;50.214;19.354;2024-02-23T03:24:59;95840.53;;;10.44;47.70
40285;BME280;25997;50.214;19.354;2024-02-23T03:28:08;95839.66;;;10.41;48.04
40285;BME280;25997;50.214;19.354;2024-02-23T03:31:11;95841.50;;;10.33;48.29
40285;BME280;25997;50.214;19.354;2024-02-23T03:34:14;95857.28;;;10.25;48.33
40285;BME280;25997;50.214;19.354;2024-02-23T03:37:16;95860.88;;;10.12;48.67
40285;BME280;25997;50.214;19.354;2024-02-23T03:40:20;95872.28;;;10.00;49.05
40285;BME280;25997;50.214;19.354;2024-02-23T03:43:22;95876.72;;;9.92;49.52
40285;BME280;25997;50.214;19.354;2024-02-23T03:46:25;95876.75;;;9.85;49.69
40285;BME280;25997;50.214;19.354;2024-02-23T03:49:27;95885.53;;;9.81;50.09
40285;BME280;25997;50.214;19.354;2024-02-23T03:52:29;95887.28;;;9.76;50.25
40285;BME280;25997;50.214;19.354;2024-02-23T03:55:33;95887.34;;;9.70;50.63
40285;BME280;25997;50.214;19.354;2024-02-23T03:58:36;95894.41;;;9.57;51.28
40285;BME280;25997;50.214;19.354;2024-02-23T04:01:39;95895.25;;;9.58;50.87
40285;BME280;25997;50.214;19.354;2024-02-23T04:04:41;95889.19;;;9.45;52.09
40285;BME280;25997;50.214;19.354;2024-02-23T04:07:44;95899.75;;;9.30;52.69
40285;BME280;25997;50.214;19.354;2024-02-23T04:10:47;95906.72;;;9.31;52.80
40285;BME280;25997;50.214;19.354;2024-02-23T04:13:50;95901.53;;;9.26;52.81
40285;BME280;25997;50.214;19.354;2024-02-23T04:16:52;95905.84;;;9.29;52.74
40285;BME280;25997;50.214;19.354;2024-02-23T04:19:55;95899.75;;;9.25;52.93
40285;BME280;25997;50.214;19.354;2024-02-23T04:22:57;95904.13;;;9.25;52.96
40285;BME280;25997;50.214;19.354;2024-02-23T04:26:01;95906.72;;;9.29;52.77
40285;BME280;25997;50.214;19.354;2024-02-23T04:29:03;95910.22;;;9.27;53.22
40285;BME280;25997;50.214;19.354;2024-02-23T04:32:06;95910.22;;;9.22;53.24
40285;BME280;25997;50.214;19.354;2024-02-23T04:35:08;95908.50;;;9.23;53.60
40285;BME280;25997;50.214;19.354;2024-02-23T04:38:11;95909.34;;;9.28;53.28
40285;BME280;25997;50.214;19.354;2024-02-23T04:41:19;95908.47;;;9.32;53.16
40285;BME280;25997;50.214;19.354;2024-02-23T04:44:22;95915.47;;;9.33;53.17
40285;BME280;25997;50.214;19.354;2024-02-23T04:47:24;95925.94;;;9.33;53.35
40285;BME280;25997;50.214;19.354;2024-02-23T04:50:27;95918.06;;;9.35;53.21
40285;BME280;25997;50.214;19.354;2024-02-23T04:53:30;95925.03;;;9.39;53.27
40285;BME280;25997;50.214;19.354;2024-02-23T04:56:33;95918.88;;;9.43;53.09
40285;BME280;25997;50.214;19.354;2024-02-23T04:59:36;95919.75;;;9.48;52.92
40285;BME280;25997;50.214;19.354;2024-02-23T05:02:38;95920.63;;;9.47;53.15
40285;BME280;25997;50.214;19.354;2024-02-23T05:05:41;95930.25;;;9.40;53.31
40285;BME280;25997;50.214;19.354;2024-02-23T05:08:43;95944.22;;;9.36;53.57
40285;BME280;25997;50.214;19.354;2024-02-23T05:11:47;95950.38;;;9.31;53.76
40285;BME280;25997;50.214;19.354;2024-02-23T05:14:49;95948.63;;;9.29;53.67
40285;BME280;25997;50.214;19.354;2024-02-23T05:17:52;95951.25;;;9.33;53.63
40285;BME280;25997;50.214;19.354;2024-02-23T05:20:54;95950.38;;;9.31;53.83
40285;BME280;25997;50.214;19.354;2024-02-23T05:23:57;95959.06;;;9.31;53.71
40285;BME280;25997;50.214;19.354;2024-02-23T05:27:01;95961.72;;;9.29;53.88
40285;BME280;25997;50.214;19.354;2024-02-23T05:30:05;95969.59;;;9.23;54.04
40285;BME280;25997;50.214;19.354;2024-02-23T05:33:07;95966.06;;;9.24;54.07
40285;BME280;25997;50.214;19.354;2024-02-23T05:36:10;95967.84;;;9.25;54.24
40285;BME280;25997;50.214;19.354;2024-02-23T05:39:12;95965.22;;;9.24;54.19
40285;BME280;25997;50.214;19.354;2024-02-23T05:42:17;95964.34;;;9.23;54.16
40285;BME280;25997;50.214;19.354;2024-02-23T05:45:20;95980.06;;;9.25;54.28
40285;BME280;25997;50.214;19.354;2024-02-23T05:48:23;95976.56;;;9.24;54.41
40285;BME280;25997;50.214;19.354;2024-02-23T05:51:25;95982.69;;;9.23;54.47
40285;BME280;25997;50.214;19.354;2024-02-23T05:54:30;95981.81;;;9.21;54.56
40285;BME280;25997;50.214;19.354;2024-02-23T05:57:33;95989.66;;;9.23;54.73
40285;BME280;25997;50.214;19.354;2024-02-23T06:00:36;95993.16;;;9.22;54.84
40285;BME280;25997;50.214;19.354;2024-02-23T06:03:39;95991.41;;;9.24;54.74
40285;BME280;25997;50.214;19.354;2024-02-23T06:06:42;95998.38;;;9.29;54.71
40285;BME280;25997;50.214;19.354;2024-02-23T06:09:44;96013.22;;;9.32;54.68
40285;BME280;25997;50.214;19.354;2024-02-23T06:12:48;96010.59;;;9.37;54.59
40285;BME280;25997;50.214;19.354;2024-02-23T06:15:51;96019.31;;;9.39;54.72
40285;BME280;25997;50.214;19.354;2024-02-23T06:18:53;96018.44;;;9.41;54.75
40285;BME280;25997;50.214;19.354;2024-02-23T06:21:56;96035.00;;;9.45;54.81
40285;BME280;25997;50.214;19.354;2024-02-23T06:24:58;96031.50;;;9.46;54.62
40285;BME280;25997;50.214;19.354;2024-02-23T06:28:02;96036.75;;;9.50;54.69
40285;BME280;25997;50.214;19.354;2024-02-23T06:31:05;96035.84;;;9.54;54.74
40285;BME280;25997;50.214;19.354;2024-02-23T06:34:07;96041.09;;;9.54;54.88
40285;BME280;25997;50.214;19.354;2024-02-23T06:37:10;96051.56;;;9.60;54.78
40285;BME280;25997;50.214;19.354;2024-02-23T06:40:15;96046.34;;;9.57;54.89
40285;BME280;25997;50.214;19.354;2024-02-23T06:43:18;96054.19;;;9.59;54.94
40285;BME280;25997;50.214;19.354;2024-02-23T06:46:21;96066.44;;;9.55;54.88
40285;BME280;25997;50.214;19.354;2024-02-23T06:49:23;96077.78;;;9.53;54.88
40285;BME280;25997;50.214;19.354;2024-02-23T06:52:26;96076.03;;;9.52;55.12
40285;BME280;25997;50.214;19.354;2024-02-23T06:55:28;96074.28;;;9.51;55.16
40285;BME280;25997;50.214;19.354;2024-02-23T06:58:32;96078.66;;;9.47;55.31
40285;BME280;25997;50.214;19.354;2024-02-23T07:01:34;96088.28;;;9.44;55.30
40285;BME280;25997;50.214;19.354;2024-02-23T07:04:38;96090.91;;;9.39;55.60
40285;BME280;25997;50.214;19.354;2024-02-23T07:07:40;96097.88;;;9.29;55.89
40285;BME280;25997;50.214;19.354;2024-02-23T07:10:43;96103.13;;;9.25;56.02
40285;BME280;25997;50.214;19.354;2024-02-23T07:13:47;96109.25;;;9.19;56.39
40285;BME280;25997;50.214;19.354;2024-02-23T07:16:50;96110.97;;;9.05;57.14
40285;BME280;25997;50.214;19.354;2024-02-23T07:19:53;96109.22;;;9.03;57.43
40285;BME280;25997;50.214;19.354;2024-02-23T07:23:04;96121.44;;;9.10;57.28
40285;BME280;25997;50.214;19.354;2024-02-23T07:26:07;96121.44;;;9.11;57.65
40285;BME280;25997;50.214;19.354;2024-02-23T07:29:11;96135.34;;;8.86;58.96
40285;BME280;25997;50.214;19.354;2024-02-23T07:32:13;96139.75;;;8.98;58.28
40285;BME280;25997;50.214;19.354;2024-02-23T07:35:16;96145.00;;;9.01;58.58
40285;BME280;25997;50.214;19.354;2024-02-23T07:38:18;96138.00;;;9.04;58.58
40285;BME280;25997;50.214;19.354;2024-02-23T07:41:21;96145.88;;;9.21;58.06
40285;BME280;25997;50.214;19.354;2024-02-23T07:44:25;96143.28;;;9.15;58.46
40285;BME280;25997;50.214;19.354;2024-02-23T07:47:27;96146.75;;;9.20;58.41
40285;BME280;25997;50.214;19.354;2024-02-23T07:50:30;96138.03;;;9.21;58.63
40285;BME280;25997;50.214;19.354;2024-02-23T07:53:33;96138.03;;;9.16;58.89
40285;BME280;25997;50.214;19.354;2024-02-23T07:56:35;96149.38;;;9.12;58.98
40285;BME280;25997;50.214;19.354;2024-02-23T07:59:39;96150.22;;;9.01;59.46
40285;BME280;25997;50.214;19.354;2024-02-23T08:02:42;96147.59;;;9.07;59.55
40285;BME280;25997;50.214;19.354;2024-02-23T08:05:44;96139.72;;;8.89;60.46
40285;BME280;25997;50.214;19.354;2024-02-23T08:08:46;96143.16;;;8.64;61.66
40285;BME280;25997;50.214;19.354;2024-02-23T08:11:49;96149.25;;;8.67;61.60
40285;BME280;25997;50.214;19.354;2024-02-23T08:14:53;96146.66;;;8.81;61.29
40285;BME280;25997;50.214;19.354;2024-02-23T08:17:56;96146.66;;;8.79;61.42
40285;BME280;25997;50.214;19.354;2024-02-23T08:20:58;96156.34;;;8.91;60.86
40285;BME280;25997;50.214;19.354;2024-02-23T08:24:03;96152.75;;;8.78;61.14
40285;BME280;25997;50.214;19.354;2024-02-23T08:27:05;96150.22;;;8.98;60.77
40285;BME280;25997;50.214;19.354;2024-02-23T08:30:10;96159.84;;;9.11;60.35
40285;BME280;25997;50.214;19.354;2024-02-23T08:33:13;96150.25;;;9.26;60.09
40285;BME280;25997;50.214;19.354;2024-02-23T08:36:15;96165.09;;;9.37;60.06
40285;BME280;25997;50.214;19.354;2024-02-23T08:39:18;96162.47;;;9.18;60.51
40285;BME280;25997;50.214;19.354;2024-02-23T08:42:22;96172.91;;;9.09;61.01
40285;BME280;25997;50.214;19.354;2024-02-23T08:45:27;96171.19;;;9.10;61.10
40285;BME280;25997;50.214;19.354;2024-02-23T08:48:29;96190.41;;;9.19;60.53
40285;BME280;25997;50.214;19.354;2024-02-23T08:51:31;96176.44;;;9.08;61.04
40285;BME280;25997;50.214;19.354;2024-02-23T08:54:34;96179.06;;;9.29;60.64
40285;BME280;25997;50.214;19.354;2024-02-23T08:57:36;96182.53;;;9.21;60.87
40285;BME280;25997;50.214;19.354;2024-02-23T09:00:40;96188.69;;;9.35;60.71
40285;BME280;25997;50.214;19.354;2024-02-23T09:03:42;96194.78;;;9.22;61.07
40285;BME280;25997;50.214;19.354;2024-02-23T09:06:45;96204.38;;;9.21;61.03
40285;BME280;25997;50.214;19.354;2024-02-23T09:09:47;96205.25;;;9.40;60.56
40285;BME280;25997;50.214;19.354;2024-02-23T09:12:50;96196.53;;;9.47;60.45
40285;BME280;25997;50.214;19.354;2024-02-23T09:15:54;96204.41;;;9.59;60.18
40285;BME280;25997;50.214;19.354;2024-02-23T09:18:56;96203.50;;;9.51;60.60
40285;BME280;25997;50.214;19.354;2024-02-23T09:21:59;96209.63;;;9.49;60.90
40285;BME280;25997;50.214;19.354;2024-02-23T09:25:03;96208.72;;;9.21;61.56
40285;BME280;25997;50.214;19.354;2024-02-23T09:28:06;96207.00;;;9.47;61.05
40285;BME280;25997;50.214;19.354;2024-02-23T09:31:10;96217.47;;;9.70;60.51
40285;BME280;25997;50.214;19.354;2024-02-23T09:34:12;96226.22;;;9.52;60.88
40285;BME280;25997;50.214;19.354;2024-02-23T09:37:15;96224.47;;;9.50;61.14
40285;BME280;25997;50.214;19.354;2024-02-23T09:40:17;96236.69;;;9.54;61.41
40285;BME280;25997;50.214;19.354;2024-02-23T09:43:21;96230.59;;;9.56;61.16
40285;BME280;25997;50.214;19.354;2024-02-23T09:46:25;96240.22;;;9.71;60.81
40285;BME280;25997;50.214;19.354;2024-02-23T09:49:29;96247.19;;;9.75;60.72
40285;BME280;25997;50.214;19.354;2024-02-23T09:52:31;96246.31;;;9.56;61.45
40285;BME280;25997;50.214;19.354;2024-02-23T09:55:34;96258.53;;;9.78;60.89
40285;BME280;25997;50.214;19.354;2024-02-23T09:58:37;96259.41;;;9.68;60.83
40285;BME280;25997;50.214;19.354;2024-02-23T10:01:40;96255.91;;;9.63;60.93
40285;BME280;25997;50.214;19.354;2024-02-23T10:04:43;96260.28;;;9.73;60.81
40285;BME280;25997;50.214;19.354;2024-02-23T10:07:46;96257.66;;;9.67;61.06
40285;BME280;25997;50.214;19.354;2024-02-23T10:10:48;96253.28;;;9.87;60.64
40285;BME280;25997;50.214;19.354;2024-02-23T10:13:52;96258.53;;;9.78;60.83
40285;BME280;25997;50.214;19.354;2024-02-23T10:16:56;96271.66;;;9.90;60.83
40285;BME280;25997;50.214;19.354;2024-02-23T10:19:59;96269.06;;;10.10;60.49
40285;BME280;25997;50.214;19.354;2024-02-23T10:23:05;96264.63;;;10.00;60.61
40285;BME280;25997;50.214;19.354;2024-02-23T10:26:07;96269.91;;;9.91;60.44
40285;BME280;25997;50.214;19.354;2024-02-23T10:29:10;96268.19;;;10.04;60.47
40285;BME280;25997;50.214;19.354;2024-02-23T10:32:15;96269.00;;;9.89;60.49
40285;BME280;25997;50.214;19.354;2024-02-23T10:35:17;96264.66;;;10.05;60.19
40285;BME280;25997;50.214;19.354;2024-02-23T10:38:20;96265.56;;;10.14;60.21
40285;BME280;25997;50.214;19.354;2024-02-23T10:41:23;96262.94;;;10.08;60.04
40285;BME280;25997;50.214;19.354;2024-02-23T10:44:28;96256.81;;;10.21;59.75
40285;BME280;25997;50.214;19.354;2024-02-23T10:47:32;96263.78;;;10.01;59.79
40285;BME280;25997;50.214;19.354;2024-02-23T10:50:36;96269.03;;;10.07;59.70
40285;BME280;25997;50.214;19.354;2024-02-23T10:53:39;96265.56;;;10.10;59.83
40285;BME280;25997;50.214;19.354;2024-02-23T10:56:42;96261.19;;;10.12;59.67
40285;BME280;25997;50.214;19.354;2024-02-23T10:59:46;96273.41;;;9.99;59.99
40285;BME280;25997;50.214;19.354;2024-02-23T11:02:51;96276.03;;;9.99;59.80
40285;BME280;25997;50.214;19.354;2024-02-23T11:05:55;96282.13;;;9.86;60.17
40285;BME280;25997;50.214;19.354;2024-02-23T11:09:07;96290.88;;;9.94;60.31
40285;BME280;25997;50.214;19.354;2024-02-23T11:12:10;96289.16;;;10.10;59.84
40285;BME280;25997;50.214;19.354;2024-02-23T11:15:26;96291.75;;;10.00;59.43
40285;BME280;25997;50.214;19.354;2024-02-23T11:18:34;96286.50;;;10.00;59.69
40285;BME280;25997;50.214;19.354;2024-02-23T11:21:38;96291.72;;;9.87;59.88
40285;BME280;25997;50.214;19.354;2024-02-23T11:24:43;96292.59;;;10.02;59.89
40285;BME280;25997;50.214;19.354;2024-02-23T11:27:49;96290.88;;;10.03;59.84
40285;BME280;25997;50.214;19.354;2024-02-23T11:30:52;96287.41;;;10.16;59.52
40285;BME280;25997;50.214;19.354;2024-02-23T11:33:57;96286.53;;;10.13;59.51
40285;BME280;25997;50.214;19.354;2024-02-23T11:37:07;96290.03;;;10.10;59.57
40285;BME280;25997;50.214;19.354;2024-02-23T11:40:12;96297.91;;;10.13;59.76
40285;BME280;25997;50.214;19.354;2024-02-23T11:43:14;96300.50;;;10.27;59.38
40285;BME280;25997;50.214;19.354;2024-02-23T11:46:19;96302.25;;;10.31;59.37
40285;BME280;25997;50.214;19.354;2024-02-23T11:49:28;96300.50;;;10.33;59.17
40285;BME280;25997;50.214;19.354;2024-02-23T11:52:31;96299.63;;;10.35;59.42
40285;BME280;25997;50.214;19.354;2024-02-23T11:55:34;96302.25;;;10.34;59.18
40285;BME280;25997;50.214;19.354;2024-02-23T11:58:37;96312.75;;;10.28;59.34
40285;BME280;25997;50.214;19.354;2024-02-23T12:01:40;96320.63;;;10.13;59.79
40285;BME280;25997;50.214;19.354;2024-02-23T12:04:44;96324.97;;;10.18;59.37
40285;BME280;25997;50.214;19.354;2024-02-23T12:07:46;96331.13;;;10.07;59.62
40285;BME280;25997;50.214;19.354;2024-02-23T12:10:49;96335.50;;;10.11;59.75
40285;BME280;25997;50.214;19.354;2024-02-23T12:13:51;96345.13;;;10.18;59.44
40285;BME280;25997;50.214;19.354;2024-02-23T12:16:54;96345.97;;;10.15;59.78
40285;BME280;25997;50.214;19.354;2024-02-23T12:19:59;96350.34;;;10.04;59.95
40285;BME280;25997;50.214;19.354;2024-02-23T12:23:02;96353.81;;;10.09;59.84
40285;BME280;25997;50.214;19.354;2024-02-23T12:26:04;96350.34;;;10.13;59.88
40285;BME280;25997;50.214;19.354;2024-02-23T12:29:07;96347.72;;;10.18;59.80
40285;BME280;25997;50.214;19.354;2024-02-23T12:32:11;96331.97;;;10.31;59.47
40285;BME280;25997;50.214;19.354;2024-02-23T12:35:16;96319.72;;;10.42;59.34
40285;BME280;25997;50.214;19.354;2024-02-23T12:38:18;96314.44;;;10.56;59.13
40285;BME280;25997;50.214;19.354;2024-02-23T12:41:20;96324.94;;;10.62;59.20
40285;BME280;25997;50.214;19.354;2024-02-23T12:44:24;96338.06;;;10.59;59.10
40285;BME280;25997;50.214;19.354;2024-02-23T12:47:26;96326.69;;;10.60;59.17
40285;BME280;25997;50.214;19.354;2024-02-23T12:50:31;96345.97;;;10.53;59.19
40285;BME280;25997;50.214;19.354;2024-02-23T12:53:34;96338.97;;;10.55;59.23
40285;BME280;25997;50.214;19.354;2024-02-23T12:56:38;96347.69;;;10.57;59.19
40285;BME280;25997;50.214;19.354;2024-02-23T12:59:40;96346.81;;;10.52;59.19
40285;BME280;25997;50.214;19.354;2024-02-23T13:02:43;96350.34;;;10.51;59.25
40285;BME280;25997;50.214;19.354;2024-02-23T13:05:47;96345.94;;;10.62;59.19
40285;BME280;25997;50.214;19.354;2024-02-23T13:08:49;96345.03;;;10.72;59.09
40285;BME280;25997;50.214;19.354;2024-02-23T13:11:51;96343.28;;;10.75;58.95
40285;BME280;25997;50.214;19.354;2024-02-23T13:14:54;96350.28;;;10.80;59.01
40285;BME280;25997;50.214;19.354;2024-02-23T13:17:56;96353.78;;;10.74;58.95
40285;BME280;25997;50.214;19.354;2024-02-23T13:21:00;96355.53;;;10.77;58.95
40285;BME280;25997;50.214;19.354;2024-02-23T13:24:04;96349.41;;;10.82;59.13
40285;BME280;25997;50.214;19.354;2024-02-23T13:27:07;96352.88;;;10.86;58.94
40285;BME280;25997;50.214;19.354;2024-02-23T13:30:10;96350.25;;;10.90;59.08
40285;BME280;25997;50.214;19.354;2024-02-23T13:33:13;96363.38;;;10.95;59.13
40285;BME280;25997;50.214;19.354;2024-02-23T13:36:18;96357.19;;;11.05;59.21
40285;BME280;25997;50.214;19.354;2024-02-23T13:39:21;96360.72;;;11.11;59.46
40285;BME280;25997;50.214;19.354;2024-02-23T13:42:23;96367.69;;;11.09;59.01
40285;BME280;25997;50.214;19.354;2024-02-23T13:45:26;96372.97;;;11.00;59.17
40285;BME280;25997;50.214;19.354;2024-02-23T13:48:28;96376.50;;;10.93;59.11
40285;BME280;25997;50.214;19.354;2024-02-23T13:51:33;96379.09;;;10.98;59.19
40285;BME280;25997;50.214;19.354;2024-02-23T13:54:35;96372.97;;;11.00;59.09
40285;BME280;25997;50.214;19.354;2024-02-23T13:57:38;96375.59;;;10.99;59.01
40285;BME280;25997;50.214;19.354;2024-02-23T14:00:40;96373.84;;;11.02;58.89
40285;BME280;25997;50.214;19.354;2024-02-23T14:03:42;96386.13;;;10.99;58.94
40285;BME280;25997;50.214;19.354;2024-02-23T14:06:46;96386.97;;;10.98;58.81
40285;BME280;25997;50.214;19.354;2024-02-23T14:09:49;96388.75;;;10.87;58.85
40285;BME280;25997;50.214;19.354;2024-02-23T14:12:52;96383.50;;;10.91;59.17
40285;BME280;25997;50.214;19.354;2024-02-23T14:15:56;96388.75;;;10.90;58.86
40285;BME280;25997;50.214;19.354;2024-02-23T14:18:58;96392.25;;;10.92;59.07
40285;BME280;25997;50.214;19.354;2024-02-23T14:22:02;96386.97;;;10.98;59.18
40285;BME280;25997;50.214;19.354;2024-02-23T14:25:05;96403.59;;;11.03;58.85
40285;BME280;25997;50.214;19.354;2024-02-23T14:28:08;96402.72;;;11.05;58.98
40285;BME280;25997;50.214;19.354;2024-02-23T14:31:11;96399.25;;;11.02;58.59
40285;BME280;25997;50.214;19.354;2024-02-23T14:34:13;96411.47;;;11.03;58.63
40285;BME280;25997;50.214;19.354;2024-02-23T14:37:17;96405.34;;;11.08;58.84
40285;BME280;25997;50.214;19.354;2024-02-23T14:40:20;96396.59;;;11.08;58.75
40285;BME280;25997;50.214;19.354;2024-02-23T14:43:22;96400.97;;;11.07;58.73
40285;BME280;25997;50.214;19.354;2024-02-23T14:46:25;96392.22;;;11.11;58.83
40285;BME280;25997;50.214;19.354;2024-02-23T14:49:27;96393.09;;;11.21;58.87
40285;BME280;25997;50.214;19.354;2024-02-23T14:52:31;96398.31;;;11.28;58.62
40285;BME280;25997;50.214;19.354;2024-02-23T14:55:33;96404.47;;;11.23;58.54
40285;BME280;25997;50.214;19.354;2024-02-23T14:58:36;96406.19;;;11.22;58.45
40285;BME280;25997;50.214;19.354;2024-02-23T15:01:39;96409.72;;;11.21;58.37
40285;BME280;25997;50.214;19.354;2024-02-23T15:04:42;96408.88;;;11.15;58.45
40285;BME280;25997;50.214;19.354;2024-02-23T15:07:46;96403.59;;;11.07;58.20
40285;BME280;25997;50.214;19.354;2024-02-23T15:10:48;96401.84;;;11.05;58.28
40285;BME280;25997;50.214;19.354;2024-02-23T15:13:52;96408.88;;;10.97;58.33
40285;BME280;25997;50.214;19.354;2024-02-23T15:16:58;96396.63;;;10.99;58.27
40285;BME280;25997;50.214;19.354;2024-02-23T15:20:00;96400.16;;;10.93;58.28
40285;BME280;25997;50.214;19.354;2024-02-23T15:23:04;96411.50;;;10.94;58.35
40285;BME280;25997;50.214;19.354;2024-02-23T15:26:07;96401.88;;;10.90;58.27
40285;BME280;25997;50.214;19.354;2024-02-23T15:29:10;96394.91;;;10.93;58.55
40285;BME280;25997;50.214;19.354;2024-02-23T15:32:13;96402.72;;;11.01;58.33
40285;BME280;25997;50.214;19.354;2024-02-23T15:35:16;96398.38;;;11.04;58.41
40285;BME280;25997;50.214;19.354;2024-02-23T15:38:20;96400.09;;;11.10;58.31
40285;BME280;25997;50.214;19.354;2024-02-23T15:41:22;96404.50;;;11.06;58.05
40285;BME280;25997;50.214;19.354;2024-02-23T15:44:25;96409.75;;;11.03;58.44
40285;BME280;25997;50.214;19.354;2024-02-23T15:47:27;96393.97;;;11.06;58.46
40285;BME280;25997;50.214;19.354;2024-02-23T15:50:29;96408.00;;;10.99;58.27
40285;BME280;25997;50.214;19.354;2024-02-23T15:53:33;96410.63;;;10.95;58.56
40285;BME280;25997;50.214;19.354;2024-02-23T15:56:36;96407.13;;;10.93;58.68
40285;BME280;25997;50.214;19.354;2024-02-23T15:59:39;96394.00;;;10.91;58.88
40285;BME280;25997;50.214;19.354;2024-02-23T16:02:41;96404.50;;;10.87;58.55